Pride — ZDFD7 — position and weather

sailwx.info

Track history (hours):
 
Tides and Currents Weather Stations Pressure Air Temp Water Temp Dewpoint Dewpoint Depression Visibility Wind Speed Wind Dir Waves Ship Positions

Pride

Last reported at 2016-Dec-07 07:28 UTC. Time now 2016-Dec-07 16:19 UTC.
Position N 50°22' W 004°08'.

Length 88 m; draft 3.4 m.

Type: Cargo ship. MMSI: 236166000.

Date/timePositionNaut miles runAvg speedWind from/ knotsBaromVisibWave heightAir tempDewpointWater temp
2016-Dec-07 07:28N 50°22' W 004°08'6 5.5
2016-Dec-07 06:23N 50°16' W 004°10'6 7.8
2016-Dec-07 05:34N 50°10' W 004°09'  
2016-Dec-04 22:32N 49°44' W 003°10'16 7.4
2016-Dec-04 20:26N 49°57' W 002°56'6610.6
2016-Dec-04 14:13N 50°18' W 001°19'38 7.6
2016-Dec-04 09:12N 50°28' W 000°21'6 8.8
2016-Dec-04 08:33N 50°30' W 000°13'10 9.7
2016-Dec-04 07:33N 50°33' E 000°02'1110.5
2016-Dec-04 06:33N 50°36' E 000°18'41 9.7
2016-Dec-04 02:24N 50°57' E 001°12'7 8.1
2016-Dec-04 01:33N 51°01' E 001°21'9 9.1
2016-Dec-04 00:33N 51°07' E 001°32'1110.6
2016-Dec-03 23:33N 51°14' E 001°45'1211.8
2016-Dec-03 22:34N 51°24' E 001°55'1211.7
2016-Dec-03 21:33N 51°33' E 002°06'61 8.7
2016-Dec-03 14:33N 52°04' E 003°31'9 9.3
2016-Dec-03 13:33N 52°04' E 003°46'9 9.4
2016-Dec-03 12:33N 52°01' E 004°00'1010.3
2016-Dec-03 11:33N 51°55' E 004°14'5 4.9
2016-Dec-03 10:34N 51°54' E 004°22'0 0.0
2016-Dec-03 09:33N 51°54' E 004°22'0 0.0
2016-Dec-03 08:29N 51°54' E 004°22'0 0.0
2016-Dec-03 07:32N 51°54' E 004°22'0 0.0
2016-Dec-03 06:28N 51°54' E 004°22'0 0.0
2016-Dec-03 05:31N 51°54' E 004°22'0 0.0
2016-Dec-03 04:33N 51°54' E 004°22'0 0.0
2016-Dec-03 03:31N 51°54' E 004°22'0 0.0
2016-Dec-03 02:33N 51°54' E 004°22'0 0.0
2016-Dec-03 01:33N 51°54' E 004°22'0 0.0
2016-Dec-03 00:27N 51°54' E 004°22'0 0.0
2016-Dec-02 23:30N 51°54' E 004°22'0 0.0
2016-Dec-02 22:28N 51°54' E 004°22'0 0.0
2016-Dec-02 21:23N 51°54' E 004°22'0 0.0
2016-Dec-02 20:33N 51°54' E 004°22'0 0.0
2016-Dec-02 19:32N 51°54' E 004°22'0 0.0
2016-Dec-02 18:27N 51°54' E 004°22'0 0.0
2016-Dec-02 17:32N 51°54' E 004°22'0 0.0
2016-Dec-02 16:28N 51°54' E 004°22'0 0.0
2016-Dec-02 15:30N 51°54' E 004°22'0 0.0
2016-Dec-02 14:31N 51°54' E 004°22'0 0.0
2016-Dec-02 13:32N 51°54' E 004°22'1 1.0
2016-Dec-02 12:33N 51°54' E 004°24'2 2.1
2016-Dec-02 11:33N 51°54' E 004°27'0 0.0
2016-Dec-02 10:31N 51°54' E 004°27'0 0.0
2016-Dec-02 09:33N 51°54' E 004°27'0 0.0
2016-Dec-02 08:28N 51°54' E 004°27'0 0.0
2016-Dec-02 07:30N 51°54' E 004°27'0 0.0
2016-Dec-02 06:28N 51°54' E 004°27'0 0.0
2016-Dec-02 05:31N 51°54' E 004°27'0 0.0
2016-Dec-02 04:30N 51°54' E 004°27'0 0.0
2016-Dec-02 03:31N 51°54' E 004°27'0 0.0
2016-Dec-02 02:33N 51°54' E 004°27'0 0.0
2016-Dec-02 01:33N 51°54' E 004°27'2 2.4
2016-Dec-02 00:33N 51°54' E 004°23'8 8.0
2016-Dec-01 23:33N 51°57' E 004°11'8 7.9
2016-Dec-01 22:33N 51°60' E 003°60'8 8.1
2016-Dec-01 21:32N 52°02' E 003°47'9 9.5
2016-Dec-01 20:33N 52°12' E 003°46'1310.1
2016-Dec-01 19:16N 52°24' E 003°49'84 8.6
2016-Dec-01 09:31N 53°34' E 005°06'7 7.8
2016-Dec-01 08:33N 53°37' E 005°18'7 7.3
2016-Dec-01 07:33N 53°39' E 005°30'7 7.2
2016-Dec-01 06:33N 53°41' E 005°41'7 7.2
2016-Dec-01 05:33N 53°43' E 005°53'70 6.3
2016-Nov-30 18:33N 53°53' E 007°50'6 5.6
2016-Nov-30 17:34N 53°51' E 007°59'10 9.6
2016-Nov-30 16:33N 53°45' E 008°12'1212.2
2016-Nov-30 15:33N 53°38' E 008°28'4 4.0
2016-Nov-30 14:29N 53°34' E 008°33'0 0.0
2016-Nov-30 13:33N 53°34' E 008°33'0 0.0
2016-Nov-30 12:31N 53°34' E 008°33'0 0.0
2016-Nov-30 11:32N 53°34' E 008°33'0 0.0
2016-Nov-30 10:12N 53°34' E 008°33'0 0.0
2016-Nov-30 09:32N 53°34' E 008°33'0 0.0
2016-Nov-30 08:31N 53°34' E 008°33'3 2.9
2016-Nov-30 07:33N 53°36' E 008°30'4 4.3
2016-Nov-30 06:33N 53°39' E 008°24'7 7.0
2016-Nov-30 05:33N 53°44' E 008°15'7 6.7
2016-Nov-30 04:33N 53°48' E 008°07'8 6.8
2016-Nov-30 03:25N 53°51' E 007°55'64 8.1
2016-Nov-29 19:32N 53°41' E 006°08'9 9.1
2016-Nov-29 18:34N 53°38' E 005°54'10 9.6
2016-Nov-29 17:33N 53°35' E 005°38'10 9.8
2016-Nov-29 16:33N 53°32' E 005°23'9 9.2
2016-Nov-29 15:33N 53°30' E 005°08'31 7.8
2016-Nov-29 11:31N 53°08' E 004°30'8 8.1
2016-Nov-29 10:33N 53°01' E 004°23'8 7.8
2016-Nov-29 09:33N 52°54' E 004°18'8 7.8
2016-Nov-29 08:33N 52°47' E 004°11'9 7.8
2016-Nov-29 07:25N 52°40' E 004°02'10 8.4
2016-Nov-29 06:16N 52°34' E 003°50'16 9.1
2016-Nov-29 04:28N 52°22' E 003°31'38 9.8
2016-Nov-29 00:32N 51°54' E 002°49'10 8.9
2016-Nov-28 23:27N 51°47' E 002°39'7 8.1
2016-Nov-28 22:33N 51°41' E 002°31'7 7.4
2016-Nov-28 21:33N 51°35' E 002°24'7 6.5
2016-Nov-28 20:32N 51°30' E 002°17'6 5.9
2016-Nov-28 19:33N 51°25' E 002°13'6 5.7
2016-Nov-28 18:34N 51°20' E 002°09'6 6.0
2016-Nov-28 17:34N 51°15' E 002°04'6 5.9
2016-Nov-28 16:34N 51°11' E 001°57'6 6.1
2016-Nov-28 15:33N 51°08' E 001°49'7 6.5
2016-Nov-28 14:34N 51°03' E 001°42'7 7.3
2016-Nov-28 13:33N 50°57' E 001°34'109 6.7
2016-Nov-27 21:26N 50°08' W 000°58'6 7.1
2016-Nov-27 20:33N 50°06' W 001°07'8 7.7
2016-Nov-27 19:33N 50°04' W 001°19'9 8.5
2016-Nov-27 18:34N 50°02' W 001°31'9 8.9
2016-Nov-27 17:33N 49°59' W 001°45'9 8.8
2016-Nov-27 16:33N 49°57' W 001°58'8 7.4
2016-Nov-27 15:27N 49°55' W 002°10'6 6.1
2016-Nov-27 14:25N 49°54' W 002°20'19 4.9
2016-Nov-27 10:32N 49°48' W 002°48'  
Track history (hours):
 
Tides and Currents Weather Stations Pressure Air Temp Water Temp Dewpoint Dewpoint Depression Visibility Wind Speed Wind Dir Waves Ship Positions

Pride

Last reported at 2016-Dec-07 07:28 UTC. Time now 2016-Dec-07 16:19 UTC.
Position N 50°22' W 004°08'.

Length 88 m; draft 3.4 m.

Type: Cargo ship. MMSI: 236166000.

Date/timePositionNaut miles runAvg speedWind from/ knotsBaromVisibWave heightAir tempDewpointWater temp
2016-Dec-07 07:28N 50°22' W 004°08'6 5.5
2016-Dec-07 06:23N 50°16' W 004°10'6 7.8
2016-Dec-07 05:34N 50°10' W 004°09'  
2016-Dec-04 22:32N 49°44' W 003°10'16 7.4
2016-Dec-04 20:26N 49°57' W 002°56'6610.6
2016-Dec-04 14:13N 50°18' W 001°19'38 7.6
2016-Dec-04 09:12N 50°28' W 000°21'6 8.8
2016-Dec-04 08:33N 50°30' W 000°13'10 9.7
2016-Dec-04 07:33N 50°33' E 000°02'1110.5
2016-Dec-04 06:33N 50°36' E 000°18'41 9.7
2016-Dec-04 02:24N 50°57' E 001°12'7 8.1
2016-Dec-04 01:33N 51°01' E 001°21'9 9.1
2016-Dec-04 00:33N 51°07' E 001°32'1110.6
2016-Dec-03 23:33N 51°14' E 001°45'1211.8
2016-Dec-03 22:34N 51°24' E 001°55'1211.7
2016-Dec-03 21:33N 51°33' E 002°06'61 8.7
2016-Dec-03 14:33N 52°04' E 003°31'9 9.3
2016-Dec-03 13:33N 52°04' E 003°46'9 9.4
2016-Dec-03 12:33N 52°01' E 004°00'1010.3
2016-Dec-03 11:33N 51°55' E 004°14'5 4.9
2016-Dec-03 10:34N 51°54' E 004°22'0 0.0
2016-Dec-03 09:33N 51°54' E 004°22'0 0.0
2016-Dec-03 08:29N 51°54' E 004°22'0 0.0
2016-Dec-03 07:32N 51°54' E 004°22'0 0.0
2016-Dec-03 06:28N 51°54' E 004°22'0 0.0
2016-Dec-03 05:31N 51°54' E 004°22'0 0.0
2016-Dec-03 04:33N 51°54' E 004°22'0 0.0
2016-Dec-03 03:31N 51°54' E 004°22'0 0.0
2016-Dec-03 02:33N 51°54' E 004°22'0 0.0
2016-Dec-03 01:33N 51°54' E 004°22'0 0.0
2016-Dec-03 00:27N 51°54' E 004°22'0 0.0
2016-Dec-02 23:30N 51°54' E 004°22'0 0.0
2016-Dec-02 22:28N 51°54' E 004°22'0 0.0
2016-Dec-02 21:23N 51°54' E 004°22'0 0.0
2016-Dec-02 20:33N 51°54' E 004°22'0 0.0
2016-Dec-02 19:32N 51°54' E 004°22'0 0.0
2016-Dec-02 18:27N 51°54' E 004°22'0 0.0
2016-Dec-02 17:32N 51°54' E 004°22'0 0.0
2016-Dec-02 16:28N 51°54' E 004°22'0 0.0
2016-Dec-02 15:30N 51°54' E 004°22'0 0.0
2016-Dec-02 14:31N 51°54' E 004°22'0 0.0
2016-Dec-02 13:32N 51°54' E 004°22'1 1.0
2016-Dec-02 12:33N 51°54' E 004°24'2 2.1
2016-Dec-02 11:33N 51°54' E 004°27'0 0.0
2016-Dec-02 10:31N 51°54' E 004°27'0 0.0
2016-Dec-02 09:33N 51°54' E 004°27'0 0.0
2016-Dec-02 08:28N 51°54' E 004°27'0 0.0
2016-Dec-02 07:30N 51°54' E 004°27'0 0.0
2016-Dec-02 06:28N 51°54' E 004°27'0 0.0
2016-Dec-02 05:31N 51°54' E 004°27'0 0.0
2016-Dec-02 04:30N 51°54' E 004°27'0 0.0
2016-Dec-02 03:31N 51°54' E 004°27'0 0.0
2016-Dec-02 02:33N 51°54' E 004°27'0 0.0
2016-Dec-02 01:33N 51°54' E 004°27'2 2.4
2016-Dec-02 00:33N 51°54' E 004°23'8 8.0
2016-Dec-01 23:33N 51°57' E 004°11'8 7.9
2016-Dec-01 22:33N 51°60' E 003°60'8 8.1
2016-Dec-01 21:32N 52°02' E 003°47'9 9.5
2016-Dec-01 20:33N 52°12' E 003°46'1310.1
2016-Dec-01 19:16N 52°24' E 003°49'84 8.6
2016-Dec-01 09:31N 53°34' E 005°06'7 7.8
2016-Dec-01 08:33N 53°37' E 005°18'7 7.3
2016-Dec-01 07:33N 53°39' E 005°30'7 7.2
2016-Dec-01 06:33N 53°41' E 005°41'7 7.2
2016-Dec-01 05:33N 53°43' E 005°53'70 6.3
2016-Nov-30 18:33N 53°53' E 007°50'6 5.6
2016-Nov-30 17:34N 53°51' E 007°59'10 9.6
2016-Nov-30 16:33N 53°45' E 008°12'1212.2
2016-Nov-30 15:33N 53°38' E 008°28'4 4.0
2016-Nov-30 14:29N 53°34' E 008°33'0 0.0
2016-Nov-30 13:33N 53°34' E 008°33'0 0.0
2016-Nov-30 12:31N 53°34' E 008°33'0 0.0
2016-Nov-30 11:32N 53°34' E 008°33'0 0.0
2016-Nov-30 10:12N 53°34' E 008°33'0 0.0
2016-Nov-30 09:32N 53°34' E 008°33'0 0.0
2016-Nov-30 08:31N 53°34' E 008°33'3 2.9
2016-Nov-30 07:33N 53°36' E 008°30'4 4.3
2016-Nov-30 06:33N 53°39' E 008°24'7 7.0
2016-Nov-30 05:33N 53°44' E 008°15'7 6.7
2016-Nov-30 04:33N 53°48' E 008°07'8 6.8
2016-Nov-30 03:25N 53°51' E 007°55'64 8.1
2016-Nov-29 19:32N 53°41' E 006°08'9 9.1
2016-Nov-29 18:34N 53°38' E 005°54'10 9.6
2016-Nov-29 17:33N 53°35' E 005°38'10 9.8
2016-Nov-29 16:33N 53°32' E 005°23'9 9.2
2016-Nov-29 15:33N 53°30' E 005°08'31 7.8
2016-Nov-29 11:31N 53°08' E 004°30'8 8.1
2016-Nov-29 10:33N 53°01' E 004°23'8 7.8
2016-Nov-29 09:33N 52°54' E 004°18'8 7.8
2016-Nov-29 08:33N 52°47' E 004°11'9 7.8
2016-Nov-29 07:25N 52°40' E 004°02'10 8.4
2016-Nov-29 06:16N 52°34' E 003°50'16 9.1
2016-Nov-29 04:28N 52°22' E 003°31'38 9.8
2016-Nov-29 00:32N 51°54' E 002°49'10 8.9
2016-Nov-28 23:27N 51°47' E 002°39'7 8.1
2016-Nov-28 22:33N 51°41' E 002°31'7 7.4
2016-Nov-28 21:33N 51°35' E 002°24'7 6.5
2016-Nov-28 20:32N 51°30' E 002°17'6 5.9
2016-Nov-28 19:33N 51°25' E 002°13'6 5.7
2016-Nov-28 18:34N 51°20' E 002°09'6 6.0
2016-Nov-28 17:34N 51°15' E 002°04'6 5.9
2016-Nov-28 16:34N 51°11' E 001°57'6 6.1
2016-Nov-28 15:33N 51°08' E 001°49'7 6.5
2016-Nov-28 14:34N 51°03' E 001°42'7 7.3
2016-Nov-28 13:33N 50°57' E 001°34'109 6.7
2016-Nov-27 21:26N 50°08' W 000°58'6 7.1
2016-Nov-27 20:33N 50°06' W 001°07'8 7.7
2016-Nov-27 19:33N 50°04' W 001°19'9 8.5
2016-Nov-27 18:34N 50°02' W 001°31'9 8.9
2016-Nov-27 17:33N 49°59' W 001°45'9 8.8
2016-Nov-27 16:33N 49°57' W 001°58'8 7.4
2016-Nov-27 15:27N 49°55' W 002°10'6 6.1
2016-Nov-27 14:25N 49°54' W 002°20'19 4.9
2016-Nov-27 10:32N 49°48' W 002°48'  

Dump ship's entire track history